Time;durP1;ratioP1;P1;durP2;ratioP2;P2;SDS_P1;SDS_P2;PMS_P1;PMS_P2;Temp;Humidity;BMP_temperature;BMP_pressure;BME280_temperature;BME280_humidity;BME280_pressure;Samples;Min_cycle;Max_cycle;Signal;HPM_P1;HPM_P2
2021/05/06 00:34:53;;;;;;;;;;;5.00;99.90;;;;;;10416183;28;19933;-91
2021/05/06 00:40:00;;;;;;;;;;;5.00;99.90;;;;;;10397637;28;20338;-91
2021/05/06 01:06:19;;;;;;;;;;;5.60;99.90;;;;;;10415872;28;20016;-92
2021/05/06 01:16:28;;;;;;;;;;;5.10;99.90;;;;;;10415122;28;19932;-91
2021/05/06 01:21:30;;;;;;;;;;;4.70;99.90;;;;;;10414594;28;19957;-91
2021/05/06 01:26:39;;;;;;;;;;;6.60;99.90;;;;;;10416346;28;19932;-92
2021/05/06 01:31:45;;;;;;;;;;;4.70;99.90;;;;;;10422280;28;19924;-89
2021/05/06 01:36:58;;;;;;;;;;;5.90;99.90;;;;;;10405537;28;20401;-89
2021/05/06 01:42:07;;;;;;;;;;;4.70;99.90;;;;;;10405674;28;19947;-89
2021/05/06 01:47:16;;;;;;;;;;;7.10;99.90;;;;;;10380007;28;20383;-89
2021/05/06 01:58:02;;;;;;;;;;;5.40;99.90;;;;;;10318097;28;19925;-92
2021/05/06 02:03:08;;;;;;;;;;;6.50;99.90;;;;;;10352272;28;19976;-92
2021/05/06 02:08:09;;;;;;;;;;;4.60;99.90;;;;;;10363146;28;19932;-92
2021/05/06 02:13:10;;;;;;;;;;;4.60;99.90;;;;;;10363915;28;19968;-92
2021/05/06 02:18:12;;;;;;;;;;;5.90;99.90;;;;;;10362953;28;20270;-92
2021/05/06 02:23:13;;;;;;;;;;;6.80;99.90;;;;;;10363417;28;19925;-92
2021/05/06 02:28:15;;;;;;;;;;;4.80;99.90;;;;;;10362893;28;20012;-92
2021/05/06 02:33:16;;;;;;;;;;;4.90;99.90;;;;;;10362663;28;19929;-92
2021/05/06 02:38:17;;;;;;;;;;;4.70;99.90;;;;;;10362479;28;19976;-92
2021/05/06 02:43:19;;;;;;;;;;;4.80;99.90;;;;;;10346208;28;19925;-92
2021/05/06 02:48:20;;;;;;;;;;;7.30;99.90;;;;;;10382185;28;19925;-93
2021/05/06 02:53:25;;;;;;;;;;;5.10;99.90;;;;;;10386726;28;19932;-93
2021/05/06 03:03:34;;;;;;;;;;;5.80;99.90;;;;;;10402301;28;20379;-92
2021/05/06 03:08:39;;;;;;;;;;;7.20;99.90;;;;;;10387175;28;19931;-93
2021/05/06 03:24:18;;;;;;;;;;;6.00;99.90;;;;;;10404724;28;19929;-93
2021/05/06 03:29:36;;;;;;;;;;;4.40;99.90;;;;;;10401760;28;19925;-93
2021/05/06 03:34:45;;;;;;;;;;;4.40;99.90;;;;;;10386644;28;20357;-93
2021/05/06 03:45:37;;;;;;;;;;;4.10;99.90;;;;;;10417833;28;20354;-92
2021/05/06 04:17:33;;;;;;;;;;;3.80;99.90;;;;;;10457464;28;19932;-91
2021/05/06 04:38:39;;;;;;;;;;;4.30;99.90;;;;;;10442823;28;19925;-91
2021/05/06 05:04:38;;;;;;;;;;;4.80;99.90;;;;;;10464415;28;19929;-92
2021/05/06 05:20:12;;;;;;;;;;;5.40;99.90;;;;;;10447893;28;19925;-92
2021/05/06 05:25:59;;;;;;;;;;;5.00;99.90;;;;;;10446745;28;19925;-91
2021/05/06 05:30:39;;;;;;;;;;;5.10;99.90;;;;;;10439317;28;20031;-92
2021/05/06 05:56:22;;;;;;;;;;;5.50;99.90;;;;;;10408154;28;19932;-92
2021/05/06 06:01:24;;;;;;;;;;;5.90;99.90;;;;;;10404645;28;19925;-92
2021/05/06 06:06:49;;;;;;;;;;;5.90;99.90;;;;;;10394284;28;19929;-92
2021/05/06 06:11:51;;;;;;;;;;;6.30;99.90;;;;;;10411868;28;20040;-92
2021/05/06 06:16:52;;;;;;;;;;;6.60;99.90;;;;;;10429103;28;19925;-92
2021/05/06 06:22:01;;;;;;;;;;;7.30;99.90;;;;;;10427905;28;20453;-91
2021/05/06 06:27:03;;;;;;;;;;;7.00;99.90;;;;;;10428810;28;19925;-91
2021/05/06 06:32:07;;;;;;;;;;;7.40;99.90;;;;;;10444119;28;20027;-91
2021/05/06 06:37:08;;;;;;;;;;;7.90;99.90;;;;;;10443257;28;20411;-91
2021/05/06 06:42:10;;;;;;;;;;;8.50;99.90;;;;;;10443905;28;20380;-91
2021/05/06 06:47:12;;;;;;;;;;;8.20;99.90;;;;;;10443134;28;19924;-89
2021/05/06 06:52:13;;;;;;;;;;;9.10;99.90;;;;;;10443500;28;20011;-91
2021/05/06 06:57:15;;;;;;;;;;;9.70;99.90;;;;;;10416970;28;19960;-91
2021/05/06 07:02:18;;;;;;;;;;;9.50;99.90;;;;;;10416368;28;19932;-91
2021/05/06 07:07:20;;;;;;;;;;;9.10;99.90;;;;;;10470933;28;20421;-90
2021/05/06 07:12:22;;;;;;;;;;;9.20;99.90;;;;;;10478640;28;20789;-90
2021/05/06 07:17:27;;;;;;;;;;;10.00;99.90;;;;;;10424941;28;19931;-91
2021/05/06 07:22:29;;;;;;;;;;;9.10;99.90;;;;;;10442185;28;19924;-90
2021/05/06 07:27:32;;;;;;;;;;;9.80;99.90;;;;;;10427403;28;20395;-90
2021/05/06 07:32:41;;;;;;;;;;;10.00;99.90;;;;;;10425870;28;19971;-90
2021/05/06 07:37:44;;;;;;;;;;;9.00;99.90;;;;;;10457927;28;20283;-91
2021/05/06 07:42:48;;;;;;;;;;;9.00;99.90;;;;;;10424136;28;19924;-92
2021/05/06 07:47:52;;;;;;;;;;;9.80;99.90;;;;;;10473460;28;20339;-91
2021/05/06 07:53:09;;;;;;;;;;;10.40;99.90;;;;;;10498286;28;19924;-91
2021/05/06 07:58:14;;;;;;;;;;;9.80;99.90;;;;;;10466477;28;20391;-91
2021/05/06 08:03:15;;;;;;;;;;;9.60;99.90;;;;;;10440302;28;20307;-90
2021/05/06 08:08:17;;;;;;;;;;;10.20;99.90;;;;;;10439454;28;20159;-91
2021/05/06 08:13:21;;;;;;;;;;;11.00;99.90;;;;;;10423448;28;19925;-88
2021/05/06 08:18:22;;;;;;;;;;;10.90;99.90;;;;;;10440376;28;19933;-89
2021/05/06 08:23:24;;;;;;;;;;;10.00;99.90;;;;;;10457841;28;19925;-88
2021/05/06 08:28:26;;;;;;;;;;;11.10;99.90;;;;;;10424025;28;19932;-89
2021/05/06 08:33:28;;;;;;;;;;;10.10;99.90;;;;;;10440498;28;19928;-89
2021/05/06 08:38:29;;;;;;;;;;;10.50;99.90;;;;;;10448833;28;19925;-91
2021/05/06 08:43:34;;;;;;;;;;;10.40;99.90;;;;;;10466009;28;20003;-91
2021/05/06 08:48:36;;;;;;;;;;;11.70;99.90;;;;;;10434191;28;19937;-92
2021/05/06 08:53:41;;;;;;;;;;;12.70;99.90;;;;;;10408263;28;19932;-92
2021/05/06 08:58:42;;;;;;;;;;;12.30;99.90;;;;;;10406848;28;19925;-90
2021/05/06 09:03:44;;;;;;;;;;;11.50;99.90;;;;;;10423926;28;19947;-92
2021/05/06 09:08:52;;;;;;;;;;;10.80;99.90;;;;;;10421456;28;19925;-92
2021/05/06 09:13:59;;;;;;;;;;;12.30;99.70;;;;;;10446665;28;19964;-92
2021/05/06 09:19:02;;;;;;;;;;;13.70;99.90;;;;;;10447297;28;19925;-92
2021/05/06 09:24:07;;;;;;;;;;;14.40;93.20;;;;;;10430068;28;20416;-90
2021/05/06 09:29:09;;;;;;;;;;;12.20;95.90;;;;;;10435672;28;19924;-91
2021/05/06 09:34:12;;;;;;;;;;;11.00;99.90;;;;;;10445957;28;20394;-91
2021/05/06 09:39:13;;;;;;;;;;;10.70;99.90;;;;;;10462287;28;20020;-91
2021/05/06 09:44:16;;;;;;;;;;;10.60;99.90;;;;;;10445325;28;20382;-93
2021/05/06 09:49:25;;;;;;;;;;;10.60;99.90;;;;;;10462381;28;20446;-91
2021/05/06 09:54:28;;;;;;;;;;;10.80;99.90;;;;;;10445509;28;19932;-91
2021/05/06 09:59:36;;;;;;;;;;;10.90;99.90;;;;;;10460965;28;19924;-91
2021/05/06 10:04:40;;;;;;;;;;;11.70;99.90;;;;;;10443926;28;19929;-92
2021/05/06 10:10:01;;;;;;;;;;;12.90;96.60;;;;;;10445026;28;20377;-92
2021/05/06 10:15:04;;;;;;;;;;;11.80;96.50;;;;;;10460763;28;19956;-89
2021/05/06 10:25:21;;;;;;;;;;;10.80;98.70;;;;;;10418801;28;19932;-91
2021/05/06 10:30:23;;;;;;;;;;;10.90;99.90;;;;;;10401873;28;19925;-91
2021/05/06 10:35:26;;;;;;;;;;;10.70;99.90;;;;;;10386524;28;19975;-91
2021/05/06 10:40:29;;;;;;;;;;;11.00;99.90;;;;;;10402220;28;19932;-92
2021/05/06 10:45:33;;;;;;;;;;;10.90;99.90;;;;;;10402241;28;19998;-92
2021/05/06 10:50:35;;;;;;;;;;;10.30;99.90;;;;;;10402853;28;19986;-92
2021/05/06 10:55:40;;;;;;;;;;;9.20;99.90;;;;;;10402347;28;19931;-91
2021/05/06 11:00:41;;;;;;;;;;;8.40;99.90;;;;;;10401686;28;19925;-90
2021/05/06 11:05:49;;;;;;;;;;;8.60;99.90;;;;;;10384521;28;20020;-89
2021/05/06 11:10:50;;;;;;;;;;;8.70;99.90;;;;;;10418659;28;19925;-91
2021/05/06 11:15:52;;;;;;;;;;;9.20;99.90;;;;;;10402396;28;20336;-91
2021/05/06 11:20:55;;;;;;;;;;;10.00;99.90;;;;;;10401012;28;19972;-90
2021/05/06 11:26:04;;;;;;;;;;;10.30;99.90;;;;;;10401351;28;19925;-91
2021/05/06 11:31:05;;;;;;;;;;;11.10;99.90;;;;;;10401179;28;19953;-90
2021/05/06 11:36:11;;;;;;;;;;;12.40;99.90;;;;;;10400658;28;20043;-90
2021/05/06 11:41:26;;;;;;;;;;;12.60;99.90;;;;;;10401788;28;20017;-90
2021/05/06 11:46:28;;;;;;;;;;;11.80;99.90;;;;;;10399295;28;19933;-90
2021/05/06 11:51:34;;;;;;;;;;;12.70;98.00;;;;;;10400310;28;19965;-90
2021/05/06 11:56:38;;;;;;;;;;;13.20;97.30;;;;;;10399263;28;20261;-88
2021/05/06 12:01:39;;;;;;;;;;;12.90;96.40;;;;;;10399714;28;19931;-88
2021/05/06 12:06:40;;;;;;;;;;;12.20;99.40;;;;;;10399448;28;19925;-88
2021/05/06 12:11:42;;;;;;;;;;;12.00;99.90;;;;;;10382397;28;19940;-91
2021/05/06 12:16:43;;;;;;;;;;;11.70;99.30;;;;;;10398887;28;20015;-90
2021/05/06 12:21:51;;;;;;;;;;;11.40;98.90;;;;;;10382363;28;19933;-91
2021/05/06 12:26:52;;;;;;;;;;;10.90;99.80;;;;;;10382402;28;20435;-90
2021/05/06 12:31:53;;;;;;;;;;;11.40;98.30;;;;;;10398950;28;19983;-90
2021/05/06 12:36:58;;;;;;;;;;;11.40;98.70;;;;;;10398261;28;20402;-90
2021/05/06 12:42:00;;;;;;;;;;;11.20;98.70;;;;;;10398530;28;19925;-90
2021/05/06 12:47:10;;;;;;;;;;;11.30;99.00;;;;;;10415395;28;20367;-90
2021/05/06 12:52:31;;;;;;;;;;;11.90;98.60;;;;;;10398354;28;19972;-89
2021/05/06 12:57:32;;;;;;;;;;;12.20;96.80;;;;;;10399822;28;19983;-91
2021/05/06 13:02:33;;;;;;;;;;;12.20;96.20;;;;;;10382385;28;20279;-90
2021/05/06 13:07:49;;;;;;;;;;;12.90;95.00;;;;;;10382152;28;20368;-91
2021/05/06 13:12:50;;;;;;;;;;;12.70;96.30;;;;;;10375319;28;19925;-91
2021/05/06 13:17:52;;;;;;;;;;;11.40;99.70;;;;;;10357356;28;20471;-90
2021/05/06 13:23:10;;;;;;;;;;;11.10;99.90;;;;;;10360037;28;19925;-90
2021/05/06 13:28:13;;;;;;;;;;;10.80;99.90;;;;;;10363999;28;20373;-90
2021/05/06 13:33:18;;;;;;;;;;;10.80;99.90;;;;;;10363589;28;20016;-90
2021/05/06 13:38:49;;;;;;;;;;;10.60;99.90;;;;;;10365924;28;19932;-89
2021/05/06 13:43:51;;;;;;;;;;;10.50;99.90;;;;;;10402343;28;19925;-90
2021/05/06 13:48:53;;;;;;;;;;;10.20;99.90;;;;;;10404218;28;19931;-88
2021/05/06 13:53:55;;;;;;;;;;;10.60;99.90;;;;;;10420985;28;19929;-89
2021/05/06 13:58:56;;;;;;;;;;;9.80;99.90;;;;;;10399838;28;20016;-88
2021/05/06 14:03:58;;;;;;;;;;;9.90;99.90;;;;;;10382049;28;20387;-88
2021/05/06 14:08:59;;;;;;;;;;;10.10;99.90;;;;;;10378858;28;19969;-89
2021/05/06 14:14:01;;;;;;;;;;;9.80;99.90;;;;;;10362831;28;19979;-90
2021/05/06 14:19:03;;;;;;;;;;;10.30;99.90;;;;;;10388828;28;19925;-89
2021/05/06 14:24:05;;;;;;;;;;;10.50;99.90;;;;;;10398036;28;19933;-89
2021/05/06 14:29:06;;;;;;;;;;;10.30;99.90;;;;;;10400303;28;19932;-89
2021/05/06 14:34:08;;;;;;;;;;;10.20;99.90;;;;;;10385276;28;19925;-89
2021/05/06 14:39:12;;;;;;;;;;;10.10;99.90;;;;;;10385453;28;19925;-88
2021/05/06 14:44:13;;;;;;;;;;;10.40;99.90;;;;;;10398628;28;19925;-88
2021/05/06 14:49:15;;;;;;;;;;;10.70;99.90;;;;;;10401141;28;19968;-88
2021/05/06 14:54:16;;;;;;;;;;;11.10;99.90;;;;;;10385312;28;19925;-88
2021/05/06 14:59:18;;;;;;;;;;;10.60;99.90;;;;;;10400453;28;19925;-88
2021/05/06 15:04:19;;;;;;;;;;;10.60;99.90;;;;;;10403159;28;19925;-87
2021/05/06 15:09:22;;;;;;;;;;;10.50;99.90;;;;;;10398424;28;19932;-87
2021/05/06 15:14:23;;;;;;;;;;;10.40;99.90;;;;;;10382618;28;20377;-86
2021/05/06 15:19:25;;;;;;;;;;;10.60;99.90;;;;;;10397551;28;19979;-86
2021/05/06 15:24:26;;;;;;;;;;;10.70;99.90;;;;;;10399502;28;19936;-86
2021/05/06 15:29:27;;;;;;;;;;;10.30;99.90;;;;;;10399145;28;20016;-86
2021/05/06 15:34:29;;;;;;;;;;;10.80;99.90;;;;;;10398075;28;20023;-85
2021/05/06 15:39:39;;;;;;;;;;;10.50;99.90;;;;;;10345904;28;19926;-86
2021/05/06 15:44:40;;;;;;;;;;;10.70;99.90;;;;;;10442164;28;19931;-87
2021/05/06 15:49:42;;;;;;;;;;;10.70;99.90;;;;;;10438957;28;19947;-85
2021/05/06 15:54:43;;;;;;;;;;;10.90;99.90;;;;;;10358405;28;19944;-89
2021/05/06 15:59:45;;;;;;;;;;;10.60;99.90;;;;;;10357896;28;19936;-86
2021/05/06 16:05:06;;;;;;;;;;;10.60;99.90;;;;;;10434380;28;20077;-86
2021/05/06 16:10:10;;;;;;;;;;;10.70;99.90;;;;;;10456133;28;20390;-86
2021/05/06 16:15:11;;;;;;;;;;;10.60;99.90;;;;;;10457374;28;19970;-86
2021/05/06 16:20:20;;;;;;;;;;;10.50;99.90;;;;;;10456486;28;19983;-85
2021/05/06 16:25:22;;;;;;;;;;;10.50;99.90;;;;;;10437665;28;20380;-86
2021/05/06 16:30:25;;;;;;;;;;;10.40;99.90;;;;;;10449744;28;20288;-86
2021/05/06 16:35:55;;;;;;;;;;;10.50;99.90;;;;;;10415585;28;19931;-86
2021/05/06 16:41:01;;;;;;;;;;;10.50;99.90;;;;;;10415729;28;19975;-86
2021/05/06 16:46:04;;;;;;;;;;;10.50;99.90;;;;;;10382394;28;19932;-86
2021/05/06 16:51:06;;;;;;;;;;;10.60;99.90;;;;;;10385975;22;19937;-88
2021/05/06 16:56:19;;;;;;;;;;;10.30;99.90;;;;;;10375128;28;20269;-88
2021/05/06 17:01:21;;;;;;;;;;;10.20;99.90;;;;;;10349134;28;19925;-88
2021/05/06 17:06:25;;;;;;;;;;;10.20;99.90;;;;;;10346253;28;19929;-88
2021/05/06 17:11:26;;;;;;;;;;;10.20;99.90;;;;;;10341612;28;20446;-88
2021/05/06 17:16:28;;;;;;;;;;;10.00;99.90;;;;;;10351992;28;20783;-89
2021/05/06 17:21:30;;;;;;;;;;;10.10;99.90;;;;;;10374932;28;19936;-88
2021/05/06 17:26:31;;;;;;;;;;;9.90;99.90;;;;;;10356677;28;19936;-88
2021/05/06 17:31:33;;;;;;;;;;;9.70;99.90;;;;;;10348358;28;19952;-88
2021/05/06 17:36:34;;;;;;;;;;;9.70;99.90;;;;;;10322786;28;19926;-88
2021/05/06 17:41:37;;;;;;;;;;;9.70;99.90;;;;;;10373303;28;19930;-88
2021/05/06 17:46:39;;;;;;;;;;;9.70;99.90;;;;;;10346726;28;19926;-88
2021/05/06 17:51:42;;;;;;;;;;;9.80;99.90;;;;;;10380429;28;19925;-88
2021/05/06 17:56:43;;;;;;;;;;;9.60;99.90;;;;;;10361970;28;20296;-88
2021/05/06 18:01:46;;;;;;;;;;;9.70;99.90;;;;;;10362986;28;19926;-88
2021/05/06 18:06:48;;;;;;;;;;;9.60;99.90;;;;;;10373349;28;19925;-88
2021/05/06 18:12:31;;;;;;;;;;;9.70;99.90;;;;;;10361164;28;19932;-88
2021/05/06 18:17:13;;;;;;;;;;;9.20;99.90;;;;;;10355017;28;19925;-89
2021/05/06 18:22:15;;;;;;;;;;;8.40;99.90;;;;;;10360387;28;19933;-88
2021/05/06 18:27:18;;;;;;;;;;;8.10;99.90;;;;;;10376856;28;20331;-88
2021/05/06 18:32:20;;;;;;;;;;;8.30;99.90;;;;;;10376381;28;20020;-87
2021/05/06 18:37:22;;;;;;;;;;;7.80;99.90;;;;;;10360451;28;20400;-88
2021/05/06 18:42:24;;;;;;;;;;;10.20;99.90;;;;;;10376408;28;19936;-89
2021/05/06 18:47:26;;;;;;;;;;;7.50;99.90;;;;;;10377117;28;19929;-87
2021/05/06 18:52:29;;;;;;;;;;;8.00;99.90;;;;;;10359074;28;20379;-87
2021/05/06 18:57:35;;;;;;;;;;;7.50;99.90;;;;;;10360116;28;20345;-88
2021/05/06 19:02:36;;;;;;;;;;;7.40;99.90;;;;;;10359009;28;19929;-88
2021/05/06 19:07:38;;;;;;;;;;;7.30;99.90;;;;;;10359824;28;19932;-88
2021/05/06 19:12:39;;;;;;;;;;;7.20;99.90;;;;;;10359491;28;19932;-88
2021/05/06 19:17:41;;;;;;;;;;;7.10;99.90;;;;;;10359267;28;19972;-88
2021/05/06 19:22:43;;;;;;;;;;;7.20;99.90;;;;;;10359035;28;19925;-89
2021/05/06 19:27:44;;;;;;;;;;;7.40;99.90;;;;;;10351734;28;19980;-89
2021/05/06 19:32:48;;;;;;;;;;;7.60;99.90;;;;;;10359105;28;19929;-89
2021/05/06 19:37:49;;;;;;;;;;;7.20;99.90;;;;;;10374718;28;19932;-88
2021/05/06 19:42:57;;;;;;;;;;;7.00;99.90;;;;;;10358995;28;19925;-89
2021/05/06 19:47:58;;;;;;;;;;;6.90;99.90;;;;;;10359834;28;19925;-89
2021/05/06 19:53:00;;;;;;;;;;;6.90;99.90;;;;;;10388626;28;19925;-89
2021/05/06 19:58:01;;;;;;;;;;;6.90;99.90;;;;;;10375214;28;20377;-89
2021/05/06 20:03:03;;;;;;;;;;;6.90;99.90;;;;;;10358612;28;20016;-88
2021/05/06 20:08:04;;;;;;;;;;;6.80;99.90;;;;;;10357434;28;19929;-88
2021/05/06 20:13:09;;;;;;;;;;;6.60;99.90;;;;;;10358574;28;19983;-89
2021/05/06 20:18:11;;;;;;;;;;;6.70;99.90;;;;;;10341918;28;20440;-88
2021/05/06 20:23:12;;;;;;;;;;;6.40;99.90;;;;;;10358156;28;19945;-89
2021/05/06 20:28:14;;;;;;;;;;;6.50;99.90;;;;;;10341257;28;20287;-88
2021/05/06 20:33:15;;;;;;;;;;;7.40;99.90;;;;;;10347165;28;20024;-89
2021/05/06 20:38:16;;;;;;;;;;;7.50;99.90;;;;;;10366987;28;19940;-89
2021/05/06 20:43:18;;;;;;;;;;;9.00;99.90;;;;;;10341856;28;19926;-89
2021/05/06 20:48:20;;;;;;;;;;;8.30;99.90;;;;;;10338561;28;20017;-88
2021/05/06 20:53:23;;;;;;;;;;;6.10;99.90;;;;;;10365686;28;19932;-88
2021/05/06 20:58:24;;;;;;;;;;;6.50;99.90;;;;;;10364871;28;20368;-89
2021/05/06 21:03:25;;;;;;;;;;;7.50;99.90;;;;;;10347673;28;20274;-88
2021/05/06 21:08:26;;;;;;;;;;;8.70;99.90;;;;;;10365590;28;19929;-88
2021/05/06 21:13:28;;;;;;;;;;;6.40;99.90;;;;;;10365161;28;19940;-89
2021/05/06 21:18:29;;;;;;;;;;;8.60;99.90;;;;;;10364853;28;19925;-89
2021/05/06 21:23:30;;;;;;;;;;;8.60;99.90;;;;;;10364550;28;19932;-88
2021/05/06 21:28:31;;;;;;;;;;;6.60;99.90;;;;;;10350573;28;20364;-88
2021/05/06 21:33:33;;;;;;;;;;;6.90;99.90;;;;;;10339881;28;19925;-89
2021/05/06 21:38:35;;;;;;;;;;;5.50;99.90;;;;;;10340173;28;19972;-89
2021/05/06 21:43:36;;;;;;;;;;;7.60;99.90;;;;;;10339064;28;19930;-89
2021/05/06 21:48:38;;;;;;;;;;;5.70;99.90;;;;;;10339043;28;20284;-89
2021/05/06 21:53:39;;;;;;;;;;;8.50;99.90;;;;;;10338765;28;19926;-89
2021/05/06 21:58:41;;;;;;;;;;;5.50;99.90;;;;;;10339340;28;20020;-89
2021/05/06 22:03:42;;;;;;;;;;;7.50;99.90;;;;;;10340191;28;19926;-89
2021/05/06 22:08:44;;;;;;;;;;;8.30;99.90;;;;;;10339453;28;19926;-89
2021/05/06 22:13:45;;;;;;;;;;;6.10;99.90;;;;;;10340500;28;19925;-89
2021/05/06 22:18:46;;;;;;;;;;;4.80;99.90;;;;;;10339665;28;19985;-89
2021/05/06 22:23:47;;;;;;;;;;;5.10;99.90;;;;;;10338308;28;19932;-88
2021/05/06 22:28:48;;;;;;;;;;;6.90;99.90;;;;;;10338384;28;19926;-89
2021/05/06 22:33:50;;;;;;;;;;;5.10;99.90;;;;;;10321989;28;19925;-89
2021/05/06 22:38:52;;;;;;;;;;;7.20;99.90;;;;;;10337595;28;20377;-89
2021/05/06 22:43:53;;;;;;;;;;;5.90;99.90;;;;;;10337098;28;19926;-89
2021/05/06 22:48:54;;;;;;;;;;;5.30;99.90;;;;;;10343389;28;20288;-89
2021/05/06 22:53:56;;;;;;;;;;;5.70;99.90;;;;;;10308734;28;19926;-89
2021/05/06 22:58:57;;;;;;;;;;;4.70;99.90;;;;;;10304859;28;19926;-89
2021/05/06 23:03:58;;;;;;;;;;;6.10;99.90;;;;;;10268459;28;20013;-89
2021/05/06 23:09:00;;;;;;;;;;;6.50;99.90;;;;;;10451918;23;19925;-88
2021/05/06 23:14:01;;;;;;;;;;;4.70;99.90;;;;;;10442213;28;19932;-89
2021/05/06 23:19:03;;;;;;;;;;;4.60;99.90;;;;;;10417135;28;19925;-89
2021/05/06 23:24:04;;;;;;;;;;;4.70;99.90;;;;;;10457016;28;19928;-88
2021/05/06 23:29:06;;;;;;;;;;;4.70;99.90;;;;;;10440682;28;20012;-88
2021/05/06 23:34:07;;;;;;;;;;;4.70;99.90;;;;;;10441679;28;19975;-88
2021/05/06 23:39:09;;;;;;;;;;;6.80;99.90;;;;;;10457251;28;20306;-89
2021/05/06 23:44:11;;;;;;;;;;;4.50;99.90;;;;;;10440930;28;20417;-88
2021/05/06 23:49:16;;;;;;;;;;;7.00;99.90;;;;;;10457539;28;19931;-89
2021/05/06 23:54:17;;;;;;;;;;;4.90;99.90;;;;;;10425074;28;19929;-89
2021/05/06 23:59:18;;;;;;;;;;;4.40;99.90;;;;;;10424227;28;19924;-89
